sensor_id;sensor_type;location;lat;lon;timestamp;temperature;humidity
10911;DHT22;5508;49.150;11.030;2023-10-31T00:01:46;10.60;99.90
10911;DHT22;5508;49.150;11.030;2023-10-31T00:04:49;10.60;99.90
10911;DHT22;5508;49.150;11.030;2023-10-31T00:07:49;10.60;99.90
10911;DHT22;5508;49.150;11.030;2023-10-31T00:10:50;10.60;99.90
10911;DHT22;5508;49.150;11.030;2023-10-31T00:13:51;10.60;99.90
10911;DHT22;5508;49.150;11.030;2023-10-31T00:16:51;10.60;99.90
10911;DHT22;5508;49.150;11.030;2023-10-31T00:19:52;10.50;99.90
10911;DHT22;5508;49.150;11.030;2023-10-31T00:22:53;10.60;99.90
10911;DHT22;5508;49.150;11.030;2023-10-31T00:25:53;10.50;99.90
10911;DHT22;5508;49.150;11.030;2023-10-31T00:28:54;10.50;99.90
10911;DHT22;5508;49.150;11.030;2023-10-31T00:31:54;10.50;99.90
10911;DHT22;5508;49.150;11.030;2023-10-31T00:34:55;10.50;99.90
10911;DHT22;5508;49.150;11.030;2023-10-31T00:37:56;10.50;99.90
10911;DHT22;5508;49.150;11.030;2023-10-31T00:40:56;10.60;99.90
10911;DHT22;5508;49.150;11.030;2023-10-31T00:43:57;10.60;99.90
10911;DHT22;5508;49.150;11.030;2023-10-31T00:46:57;10.50;99.90
10911;DHT22;5508;49.150;11.030;2023-10-31T00:49:58;10.50;99.90
10911;DHT22;5508;49.150;11.030;2023-10-31T00:52:58;10.50;99.90
10911;DHT22;5508;49.150;11.030;2023-10-31T00:55:59;10.50;99.90
10911;DHT22;5508;49.150;11.030;2023-10-31T00:59:00;10.50;99.90
10911;DHT22;5508;49.150;11.030;2023-10-31T01:02:00;10.50;99.90
10911;DHT22;5508;49.150;11.030;2023-10-31T01:05:01;10.50;99.90
10911;DHT22;5508;49.150;11.030;2023-10-31T01:08:01;10.50;99.90
10911;DHT22;5508;49.150;11.030;2023-10-31T01:11:02;10.50;99.90
10911;DHT22;5508;49.150;11.030;2023-10-31T01:14:03;10.40;99.90
10911;DHT22;5508;49.150;11.030;2023-10-31T01:17:04;10.40;99.90
10911;DHT22;5508;49.150;11.030;2023-10-31T01:20:05;10.40;99.90
10911;DHT22;5508;49.150;11.030;2023-10-31T01:23:06;10.40;99.90
10911;DHT22;5508;49.150;11.030;2023-10-31T01:26:07;10.40;99.90
10911;DHT22;5508;49.150;11.030;2023-10-31T01:29:07;10.40;99.90
10911;DHT22;5508;49.150;11.030;2023-10-31T01:32:08;10.40;99.90
10911;DHT22;5508;49.150;11.030;2023-10-31T01:35:09;10.40;99.90
10911;DHT22;5508;49.150;11.030;2023-10-31T01:38:09;10.40;99.90
10911;DHT22;5508;49.150;11.030;2023-10-31T01:41:10;10.40;99.90
10911;DHT22;5508;49.150;11.030;2023-10-31T01:44:11;10.40;99.90
10911;DHT22;5508;49.150;11.030;2023-10-31T01:47:12;10.30;99.90
10911;DHT22;5508;49.150;11.030;2023-10-31T01:50:12;10.30;99.90
10911;DHT22;5508;49.150;11.030;2023-10-31T01:53:13;10.20;99.90
10911;DHT22;5508;49.150;11.030;2023-10-31T01:56:14;10.30;99.90
10911;DHT22;5508;49.150;11.030;2023-10-31T01:59:14;10.30;99.90
10911;DHT22;5508;49.150;11.030;2023-10-31T02:02:15;10.20;99.90
10911;DHT22;5508;49.150;11.030;2023-10-31T02:05:16;10.20;99.90
10911;DHT22;5508;49.150;11.030;2023-10-31T02:08:17;10.20;99.90
10911;DHT22;5508;49.150;11.030;2023-10-31T02:11:18;10.10;99.90
10911;DHT22;5508;49.150;11.030;2023-10-31T02:14:19;10.10;99.90
10911;DHT22;5508;49.150;11.030;2023-10-31T02:17:22;10.10;99.90
10911;DHT22;5508;49.150;11.030;2023-10-31T02:20:22;10.10;99.90
10911;DHT22;5508;49.150;11.030;2023-10-31T02:23:23;10.10;99.90
10911;DHT22;5508;49.150;11.030;2023-10-31T02:26:23;10.00;99.90
10911;DHT22;5508;49.150;11.030;2023-10-31T02:29:24;10.00;99.90
10911;DHT22;5508;49.150;11.030;2023-10-31T02:32:24;9.90;99.90
10911;DHT22;5508;49.150;11.030;2023-10-31T02:35:25;10.00;99.90
10911;DHT22;5508;49.150;11.030;2023-10-31T02:38:25;10.00;99.90
10911;DHT22;5508;49.150;11.030;2023-10-31T02:41:26;9.90;99.90
10911;DHT22;5508;49.150;11.030;2023-10-31T02:44:26;9.90;99.90
10911;DHT22;5508;49.150;11.030;2023-10-31T02:47:27;9.90;99.90
10911;DHT22;5508;49.150;11.030;2023-10-31T02:50:28;9.90;99.90
10911;DHT22;5508;49.150;11.030;2023-10-31T02:53:28;9.90;99.90
10911;DHT22;5508;49.150;11.030;2023-10-31T02:56:29;9.80;99.90
10911;DHT22;5508;49.150;11.030;2023-10-31T02:59:30;9.70;99.90
10911;DHT22;5508;49.150;11.030;2023-10-31T03:02:30;9.70;99.90
10911;DHT22;5508;49.150;11.030;2023-10-31T03:05:31;9.60;99.90
10911;DHT22;5508;49.150;11.030;2023-10-31T03:08:31;9.60;99.90
10911;DHT22;5508;49.150;11.030;2023-10-31T03:11:32;9.50;99.90
10911;DHT22;5508;49.150;11.030;2023-10-31T03:14:33;9.50;99.90
10911;DHT22;5508;49.150;11.030;2023-10-31T03:17:33;9.50;99.90
10911;DHT22;5508;49.150;11.030;2023-10-31T03:20:34;9.40;99.90
10911;DHT22;5508;49.150;11.030;2023-10-31T03:23:34;9.50;99.90
10911;DHT22;5508;49.150;11.030;2023-10-31T03:26:35;9.40;99.90
10911;DHT22;5508;49.150;11.030;2023-10-31T03:29:36;9.30;99.90
10911;DHT22;5508;49.150;11.030;2023-10-31T03:32:36;9.30;99.90
10911;DHT22;5508;49.150;11.030;2023-10-31T03:35:37;9.30;99.90
10911;DHT22;5508;49.150;11.030;2023-10-31T03:38:37;9.20;99.90
10911;DHT22;5508;49.150;11.030;2023-10-31T03:41:38;9.20;99.90
10911;DHT22;5508;49.150;11.030;2023-10-31T03:44:38;9.20;99.90
10911;DHT22;5508;49.150;11.030;2023-10-31T03:47:39;9.20;99.90
10911;DHT22;5508;49.150;11.030;2023-10-31T03:50:39;9.20;99.90
10911;DHT22;5508;49.150;11.030;2023-10-31T03:53:40;9.20;99.90
10911;DHT22;5508;49.150;11.030;2023-10-31T03:56:42;9.10;99.90
10911;DHT22;5508;49.150;11.030;2023-10-31T03:59:43;9.20;99.90
10911;DHT22;5508;49.150;11.030;2023-10-31T04:02:44;9.10;99.90
10911;DHT22;5508;49.150;11.030;2023-10-31T04:05:44;9.10;99.90
10911;DHT22;5508;49.150;11.030;2023-10-31T04:08:45;9.10;99.90
10911;DHT22;5508;49.150;11.030;2023-10-31T04:11:45;9.10;99.90
10911;DHT22;5508;49.150;11.030;2023-10-31T04:14:46;9.00;99.90
10911;DHT22;5508;49.150;11.030;2023-10-31T04:17:47;8.90;99.90
10911;DHT22;5508;49.150;11.030;2023-10-31T04:20:47;8.90;99.90
10911;DHT22;5508;49.150;11.030;2023-10-31T04:23:48;8.90;99.90
10911;DHT22;5508;49.150;11.030;2023-10-31T04:26:49;8.80;99.90
10911;DHT22;5508;49.150;11.030;2023-10-31T04:29:49;8.80;99.90
10911;DHT22;5508;49.150;11.030;2023-10-31T04:32:50;8.70;99.90
10911;DHT22;5508;49.150;11.030;2023-10-31T04:35:50;8.70;99.90
10911;DHT22;5508;49.150;11.030;2023-10-31T04:38:51;8.70;99.90
10911;DHT22;5508;49.150;11.030;2023-10-31T04:41:51;8.70;99.90
10911;DHT22;5508;49.150;11.030;2023-10-31T04:44:52;8.70;99.90
10911;DHT22;5508;49.150;11.030;2023-10-31T04:47:53;8.60;99.90
10911;DHT22;5508;49.150;11.030;2023-10-31T04:50:54;8.60;99.90
10911;DHT22;5508;49.150;11.030;2023-10-31T04:53:54;8.60;99.90
10911;DHT22;5508;49.150;11.030;2023-10-31T04:56:55;8.60;99.90
10911;DHT22;5508;49.150;11.030;2023-10-31T04:59:56;8.60;99.90
10911;DHT22;5508;49.150;11.030;2023-10-31T05:02:57;8.60;99.90
10911;DHT22;5508;49.150;11.030;2023-10-31T05:05:58;8.60;99.90
10911;DHT22;5508;49.150;11.030;2023-10-31T05:08:59;8.50;99.90
10911;DHT22;5508;49.150;11.030;2023-10-31T05:12:01;8.50;99.90
10911;DHT22;5508;49.150;11.030;2023-10-31T05:15:01;8.50;99.90
10911;DHT22;5508;49.150;11.030;2023-10-31T05:18:03;8.40;99.90
10911;DHT22;5508;49.150;11.030;2023-10-31T05:21:04;8.40;99.90
10911;DHT22;5508;49.150;11.030;2023-10-31T05:24:05;8.30;99.90
10911;DHT22;5508;49.150;11.030;2023-10-31T05:27:06;8.30;99.90
10911;DHT22;5508;49.150;11.030;2023-10-31T05:30:08;8.30;99.90
10911;DHT22;5508;49.150;11.030;2023-10-31T05:33:09;8.30;99.90
10911;DHT22;5508;49.150;11.030;2023-10-31T05:36:23;8.30;99.90
10911;DHT22;5508;49.150;11.030;2023-10-31T05:39:24;8.30;99.90
10911;DHT22;5508;49.150;11.030;2023-10-31T05:42:24;8.30;99.90
10911;DHT22;5508;49.150;11.030;2023-10-31T05:45:26;8.30;99.90
10911;DHT22;5508;49.150;11.030;2023-10-31T05:48:27;8.30;99.90
10911;DHT22;5508;49.150;11.030;2023-10-31T05:51:28;8.30;99.90
10911;DHT22;5508;49.150;11.030;2023-10-31T05:54:30;8.30;99.90
10911;DHT22;5508;49.150;11.030;2023-10-31T05:57:30;8.30;99.90
10911;DHT22;5508;49.150;11.030;2023-10-31T06:00:31;8.40;99.90
10911;DHT22;5508;49.150;11.030;2023-10-31T06:03:32;8.30;99.90
10911;DHT22;5508;49.150;11.030;2023-10-31T06:06:36;8.20;99.90
10911;DHT22;5508;49.150;11.030;2023-10-31T06:09:37;8.10;99.90
10911;DHT22;5508;49.150;11.030;2023-10-31T06:12:37;8.10;99.90
10911;DHT22;5508;49.150;11.030;2023-10-31T06:15:38;8.10;99.90
10911;DHT22;5508;49.150;11.030;2023-10-31T06:18:39;8.10;99.90
10911;DHT22;5508;49.150;11.030;2023-10-31T06:21:40;8.10;99.90
10911;DHT22;5508;49.150;11.030;2023-10-31T06:24:41;8.10;99.90
10911;DHT22;5508;49.150;11.030;2023-10-31T06:27:41;8.10;99.90
10911;DHT22;5508;49.150;11.030;2023-10-31T06:30:42;8.10;99.90
10911;DHT22;5508;49.150;11.030;2023-10-31T06:33:42;8.10;99.90
10911;DHT22;5508;49.150;11.030;2023-10-31T06:36:43;8.10;99.90
10911;DHT22;5508;49.150;11.030;2023-10-31T06:39:44;8.10;99.90
10911;DHT22;5508;49.150;11.030;2023-10-31T06:42:44;8.20;99.90
10911;DHT22;5508;49.150;11.030;2023-10-31T06:45:45;8.20;99.90
10911;DHT22;5508;49.150;11.030;2023-10-31T06:48:45;8.20;99.90
10911;DHT22;5508;49.150;11.030;2023-10-31T06:51:46;8.30;99.90
10911;DHT22;5508;49.150;11.030;2023-10-31T06:54:47;8.30;99.90
10911;DHT22;5508;49.150;11.030;2023-10-31T06:57:47;8.20;99.90
10911;DHT22;5508;49.150;11.030;2023-10-31T07:00:48;8.20;99.90
10911;DHT22;5508;49.150;11.030;2023-10-31T07:03:48;8.30;99.90
10911;DHT22;5508;49.150;11.030;2023-10-31T07:06:49;8.40;99.90
10911;DHT22;5508;49.150;11.030;2023-10-31T07:09:52;8.40;99.90
10911;DHT22;5508;49.150;11.030;2023-10-31T07:12:53;8.40;99.90
10911;DHT22;5508;49.150;11.030;2023-10-31T07:15:54;8.50;99.90
10911;DHT22;5508;49.150;11.030;2023-10-31T07:18:55;8.50;99.90
10911;DHT22;5508;49.150;11.030;2023-10-31T07:21:55;8.50;99.90
10911;DHT22;5508;49.150;11.030;2023-10-31T07:24:56;8.50;99.90
10911;DHT22;5508;49.150;11.030;2023-10-31T07:27:58;8.50;99.90
10911;DHT22;5508;49.150;11.030;2023-10-31T07:30:59;8.60;99.90
10911;DHT22;5508;49.150;11.030;2023-10-31T07:34:01;8.60;99.90
10911;DHT22;5508;49.150;11.030;2023-10-31T07:37:03;8.60;99.90
10911;DHT22;5508;49.150;11.030;2023-10-31T07:40:04;8.70;99.90
10911;DHT22;5508;49.150;11.030;2023-10-31T07:43:05;8.70;99.90
10911;DHT22;5508;49.150;11.030;2023-10-31T07:46:05;8.70;99.90
10911;DHT22;5508;49.150;11.030;2023-10-31T07:49:06;8.70;99.90
10911;DHT22;5508;49.150;11.030;2023-10-31T07:52:06;8.70;99.90
10911;DHT22;5508;49.150;11.030;2023-10-31T07:55:07;8.70;99.90
10911;DHT22;5508;49.150;11.030;2023-10-31T07:58:08;8.70;99.90
10911;DHT22;5508;49.150;11.030;2023-10-31T08:01:10;8.70;99.90
10911;DHT22;5508;49.150;11.030;2023-10-31T08:04:11;8.70;99.90
10911;DHT22;5508;49.150;11.030;2023-10-31T08:07:12;8.80;99.90
10911;DHT22;5508;49.150;11.030;2023-10-31T08:10:14;8.90;99.90
10911;DHT22;5508;49.150;11.030;2023-10-31T08:13:14;8.90;99.90
10911;DHT22;5508;49.150;11.030;2023-10-31T08:16:19;8.90;99.90
10911;DHT22;5508;49.150;11.030;2023-10-31T08:19:23;9.00;99.90
10911;DHT22;5508;49.150;11.030;2023-10-31T08:22:23;9.00;99.90
10911;DHT22;5508;49.150;11.030;2023-10-31T08:25:24;9.00;99.90
10911;DHT22;5508;49.150;11.030;2023-10-31T08:28:25;9.00;99.90
10911;DHT22;5508;49.150;11.030;2023-10-31T08:31:25;9.10;99.90
10911;DHT22;5508;49.150;11.030;2023-10-31T08:34:26;9.10;99.90
10911;DHT22;5508;49.150;11.030;2023-10-31T08:37:26;9.10;99.90
10911;DHT22;5508;49.150;11.030;2023-10-31T08:40:27;9.10;99.90
10911;DHT22;5508;49.150;11.030;2023-10-31T08:43:27;9.10;99.90
10911;DHT22;5508;49.150;11.030;2023-10-31T08:46:28;9.30;99.90
10911;DHT22;5508;49.150;11.030;2023-10-31T08:49:29;9.40;99.90
10911;DHT22;5508;49.150;11.030;2023-10-31T08:52:29;9.40;99.90
10911;DHT22;5508;49.150;11.030;2023-10-31T08:55:30;9.40;99.90
10911;DHT22;5508;49.150;11.030;2023-10-31T08:58:31;9.50;99.10
10911;DHT22;5508;49.150;11.030;2023-10-31T09:01:31;9.60;99.10
10911;DHT22;5508;49.150;11.030;2023-10-31T09:04:33;9.70;98.50
10911;DHT22;5508;49.150;11.030;2023-10-31T09:07:35;9.80;98.70
10911;DHT22;5508;49.150;11.030;2023-10-31T09:10:36;9.90;98.40
10911;DHT22;5508;49.150;11.030;2023-10-31T09:13:38;9.80;97.50
10911;DHT22;5508;49.150;11.030;2023-10-31T09:16:39;9.80;98.00
10911;DHT22;5508;49.150;11.030;2023-10-31T09:19:39;9.90;97.10
10911;DHT22;5508;49.150;11.030;2023-10-31T09:22:40;10.00;94.80
10911;DHT22;5508;49.150;11.030;2023-10-31T09:25:41;10.10;95.70
10911;DHT22;5508;49.150;11.030;2023-10-31T09:28:41;9.90;95.00
10911;DHT22;5508;49.150;11.030;2023-10-31T09:31:49;9.80;96.40
10911;DHT22;5508;49.150;11.030;2023-10-31T09:34:50;9.80;98.50
10911;DHT22;5508;49.150;11.030;2023-10-31T09:37:50;9.80;97.10
10911;DHT22;5508;49.150;11.030;2023-10-31T09:40:51;9.70;98.10
10911;DHT22;5508;49.150;11.030;2023-10-31T09:43:52;9.70;98.60
10911;DHT22;5508;49.150;11.030;2023-10-31T09:46:53;9.40;98.40
10911;DHT22;5508;49.150;11.030;2023-10-31T09:49:53;9.40;99.90
10911;DHT22;5508;49.150;11.030;2023-10-31T09:52:55;9.40;99.90
10911;DHT22;5508;49.150;11.030;2023-10-31T09:55:56;9.40;99.90
10911;DHT22;5508;49.150;11.030;2023-10-31T09:58:57;9.40;99.90
10911;DHT22;5508;49.150;11.030;2023-10-31T10:02:00;9.40;99.90
10911;DHT22;5508;49.150;11.030;2023-10-31T10:05:02;9.40;99.90
10911;DHT22;5508;49.150;11.030;2023-10-31T10:08:06;9.50;99.90
10911;DHT22;5508;49.150;11.030;2023-10-31T10:11:07;9.60;99.90
10911;DHT22;5508;49.150;11.030;2023-10-31T10:14:08;9.50;99.90
10911;DHT22;5508;49.150;11.030;2023-10-31T10:17:20;9.40;99.90
10911;DHT22;5508;49.150;11.030;2023-10-31T10:20:21;9.20;99.90
10911;DHT22;5508;49.150;11.030;2023-10-31T10:23:22;9.00;99.90
10911;DHT22;5508;49.150;11.030;2023-10-31T10:26:22;9.00;99.90
10911;DHT22;5508;49.150;11.030;2023-10-31T10:29:25;9.20;99.90
10911;DHT22;5508;49.150;11.030;2023-10-31T10:32:26;9.20;99.90
10911;DHT22;5508;49.150;11.030;2023-10-31T10:35:27;9.30;99.90
10911;DHT22;5508;49.150;11.030;2023-10-31T10:38:28;9.30;99.90
10911;DHT22;5508;49.150;11.030;2023-10-31T10:41:34;9.30;99.90
10911;DHT22;5508;49.150;11.030;2023-10-31T10:44:35;9.50;99.90
10911;DHT22;5508;49.150;11.030;2023-10-31T10:47:36;9.70;99.90
10911;DHT22;5508;49.150;11.030;2023-10-31T10:50:41;9.90;99.90
10911;DHT22;5508;49.150;11.030;2023-10-31T10:54:08;9.80;99.90
10911;DHT22;5508;49.150;11.030;2023-10-31T10:57:15;9.90;99.90
10911;DHT22;5508;49.150;11.030;2023-10-31T11:00:20;10.00;99.90
10911;DHT22;5508;49.150;11.030;2023-10-31T11:03:26;10.00;99.90
10911;DHT22;5508;49.150;11.030;2023-10-31T11:06:29;10.20;99.90
10911;DHT22;5508;49.150;11.030;2023-10-31T11:09:31;10.10;99.90
10911;DHT22;5508;49.150;11.030;2023-10-31T11:12:32;10.20;99.90
10911;DHT22;5508;49.150;11.030;2023-10-31T11:15:33;10.20;99.90
10911;DHT22;5508;49.150;11.030;2023-10-31T11:18:34;10.50;99.90
10911;DHT22;5508;49.150;11.030;2023-10-31T11:21:35;10.50;99.90
10911;DHT22;5508;49.150;11.030;2023-10-31T11:24:37;10.40;99.90
10911;DHT22;5508;49.150;11.030;2023-10-31T11:27:38;10.20;99.90
10911;DHT22;5508;49.150;11.030;2023-10-31T11:30:38;10.10;99.90
10911;DHT22;5508;49.150;11.030;2023-10-31T11:33:40;10.10;99.90
10911;DHT22;5508;49.150;11.030;2023-10-31T11:36:43;10.20;99.90
10911;DHT22;5508;49.150;11.030;2023-10-31T11:43:15;10.30;99.90
10911;DHT22;5508;49.150;11.030;2023-10-31T11:46:20;10.40;99.90
10911;DHT22;5508;49.150;11.030;2023-10-31T11:49:45;10.50;98.20
10911;DHT22;5508;49.150;11.030;2023-10-31T11:52:58;10.40;97.20
10911;DHT22;5508;49.150;11.030;2023-10-31T11:55:59;10.40;98.70
10911;DHT22;5508;49.150;11.030;2023-10-31T11:59:03;10.30;96.00
10911;DHT22;5508;49.150;11.030;2023-10-31T12:02:16;10.20;97.50
10911;DHT22;5508;49.150;11.030;2023-10-31T12:05:18;10.20;98.60
10911;DHT22;5508;49.150;11.030;2023-10-31T12:08:37;10.30;98.80
10911;DHT22;5508;49.150;11.030;2023-10-31T12:11:44;10.50;97.40
10911;DHT22;5508;49.150;11.030;2023-10-31T12:14:45;10.60;97.90
10911;DHT22;5508;49.150;11.030;2023-10-31T12:17:46;10.60;96.40
10911;DHT22;5508;49.150;11.030;2023-10-31T12:20:48;10.60;95.80
10911;DHT22;5508;49.150;11.030;2023-10-31T12:23:49;10.80;97.00
10911;DHT22;5508;49.150;11.030;2023-10-31T12:26:50;10.80;93.70
10911;DHT22;5508;49.150;11.030;2023-10-31T12:30:01;10.90;93.60
10911;DHT22;5508;49.150;11.030;2023-10-31T12:33:02;10.90;93.80
10911;DHT22;5508;49.150;11.030;2023-10-31T12:36:02;10.80;93.00
10911;DHT22;5508;49.150;11.030;2023-10-31T12:39:09;10.90;92.80
10911;DHT22;5508;49.150;11.030;2023-10-31T12:42:10;11.00;92.40
10911;DHT22;5508;49.150;11.030;2023-10-31T12:45:11;11.10;92.80
10911;DHT22;5508;49.150;11.030;2023-10-31T12:48:12;11.20;90.30
10911;DHT22;5508;49.150;11.030;2023-10-31T12:51:13;11.20;89.50
10911;DHT22;5508;49.150;11.030;2023-10-31T12:54:27;11.10;88.50
10911;DHT22;5508;49.150;11.030;2023-10-31T12:57:28;11.30;90.80
10911;DHT22;5508;49.150;11.030;2023-10-31T13:00:33;11.10;86.00
10911;DHT22;5508;49.150;11.030;2023-10-31T13:03:48;11.00;88.10
10911;DHT22;5508;49.150;11.030;2023-10-31T13:07:00;11.00;89.00
10911;DHT22;5508;49.150;11.030;2023-10-31T13:10:01;11.00;87.60
10911;DHT22;5508;49.150;11.030;2023-10-31T13:13:03;11.10;86.80
10911;DHT22;5508;49.150;11.030;2023-10-31T13:16:04;11.20;85.20
10911;DHT22;5508;49.150;11.030;2023-10-31T13:19:04;11.20;86.20
10911;DHT22;5508;49.150;11.030;2023-10-31T13:22:05;11.20;84.30
10911;DHT22;5508;49.150;11.030;2023-10-31T13:25:07;11.10;85.70
10911;DHT22;5508;49.150;11.030;2023-10-31T13:28:10;11.10;86.90
10911;DHT22;5508;49.150;11.030;2023-10-31T13:31:12;11.10;88.00
10911;DHT22;5508;49.150;11.030;2023-10-31T13:34:14;11.00;86.50
10911;DHT22;5508;49.150;11.030;2023-10-31T13:37:15;11.00;85.60
10911;DHT22;5508;49.150;11.030;2023-10-31T13:40:15;10.90;86.70
10911;DHT22;5508;49.150;11.030;2023-10-31T13:43:16;11.00;87.10
10911;DHT22;5508;49.150;11.030;2023-10-31T13:46:16;11.10;85.60
10911;DHT22;5508;49.150;11.030;2023-10-31T13:49:17;11.10;86.50
10911;DHT22;5508;49.150;11.030;2023-10-31T13:52:18;11.20;87.10
10911;DHT22;5508;49.150;11.030;2023-10-31T13:55:19;11.10;85.30
10911;DHT22;5508;49.150;11.030;2023-10-31T13:58:19;11.10;86.20
10911;DHT22;5508;49.150;11.030;2023-10-31T14:01:21;11.10;85.40
10911;DHT22;5508;49.150;11.030;2023-10-31T14:04:25;11.20;86.00
10911;DHT22;5508;49.150;11.030;2023-10-31T14:07:25;11.10;86.10
10911;DHT22;5508;49.150;11.030;2023-10-31T14:10:26;11.20;85.00
10911;DHT22;5508;49.150;11.030;2023-10-31T14:13:26;11.10;85.00
10911;DHT22;5508;49.150;11.030;2023-10-31T14:16:27;11.10;85.50
10911;DHT22;5508;49.150;11.030;2023-10-31T14:19:28;11.10;83.90
10911;DHT22;5508;49.150;11.030;2023-10-31T14:22:28;11.20;84.90
10911;DHT22;5508;49.150;11.030;2023-10-31T14:25:29;11.30;85.70
10911;DHT22;5508;49.150;11.030;2023-10-31T14:28:29;11.20;83.60
10911;DHT22;5508;49.150;11.030;2023-10-31T14:31:30;11.10;85.10
10911;DHT22;5508;49.150;11.030;2023-10-31T14:34:30;11.10;85.70
10911;DHT22;5508;49.150;11.030;2023-10-31T14:37:31;11.00;85.60
10911;DHT22;5508;49.150;11.030;2023-10-31T14:40:31;11.00;86.90
10911;DHT22;5508;49.150;11.030;2023-10-31T14:43:32;11.00;86.70
10911;DHT22;5508;49.150;11.030;2023-10-31T14:46:33;10.80;87.20
10911;DHT22;5508;49.150;11.030;2023-10-31T14:49:33;10.80;88.90
10911;DHT22;5508;49.150;11.030;2023-10-31T14:52:34;10.70;89.00
10911;DHT22;5508;49.150;11.030;2023-10-31T14:55:34;10.60;89.20
10911;DHT22;5508;49.150;11.030;2023-10-31T14:58:35;10.60;90.70
10911;DHT22;5508;49.150;11.030;2023-10-31T15:01:36;10.50;91.90
10911;DHT22;5508;49.150;11.030;2023-10-31T15:04:36;10.50;92.20
10911;DHT22;5508;49.150;11.030;2023-10-31T15:07:37;10.50;92.30
10911;DHT22;5508;49.150;11.030;2023-10-31T15:10:38;10.50;92.60
10911;DHT22;5508;49.150;11.030;2023-10-31T15:13:39;10.50;91.70
10911;DHT22;5508;49.150;11.030;2023-10-31T15:16:40;10.50;92.80
10911;DHT22;5508;49.150;11.030;2023-10-31T15:19:41;10.50;92.90
10911;DHT22;5508;49.150;11.030;2023-10-31T15:22:42;10.50;93.70
10911;DHT22;5508;49.150;11.030;2023-10-31T15:25:42;10.40;93.60
10911;DHT22;5508;49.150;11.030;2023-10-31T15:28:43;10.30;95.30
10911;DHT22;5508;49.150;11.030;2023-10-31T15:31:44;10.10;95.80
10911;DHT22;5508;49.150;11.030;2023-10-31T15:34:54;10.10;95.60
10911;DHT22;5508;49.150;11.030;2023-10-31T15:37:54;10.00;96.40
10911;DHT22;5508;49.150;11.030;2023-10-31T15:40:55;9.80;96.70
10911;DHT22;5508;49.150;11.030;2023-10-31T15:43:55;9.70;97.40
10911;DHT22;5508;49.150;11.030;2023-10-31T15:46:56;9.60;98.30
10911;DHT22;5508;49.150;11.030;2023-10-31T15:49:57;9.60;98.70
10911;DHT22;5508;49.150;11.030;2023-10-31T15:52:58;9.60;97.80
10911;DHT22;5508;49.150;11.030;2023-10-31T15:55:58;9.60;99.00
10911;DHT22;5508;49.150;11.030;2023-10-31T15:58:59;9.40;99.90
10911;DHT22;5508;49.150;11.030;2023-10-31T16:02:02;9.40;99.90
10911;DHT22;5508;49.150;11.030;2023-10-31T16:05:02;9.30;99.90
10911;DHT22;5508;49.150;11.030;2023-10-31T16:08:03;9.30;99.90
10911;DHT22;5508;49.150;11.030;2023-10-31T16:11:04;9.40;99.90
10911;DHT22;5508;49.150;11.030;2023-10-31T16:14:04;9.40;99.90
10911;DHT22;5508;49.150;11.030;2023-10-31T16:17:05;9.30;99.90
10911;DHT22;5508;49.150;11.030;2023-10-31T16:20:06;9.20;99.90
10911;DHT22;5508;49.150;11.030;2023-10-31T16:23:07;9.20;99.90
10911;DHT22;5508;49.150;11.030;2023-10-31T16:26:07;9.20;99.90
10911;DHT22;5508;49.150;11.030;2023-10-31T16:29:08;9.20;99.90
10911;DHT22;5508;49.150;11.030;2023-10-31T16:32:14;9.10;99.90
10911;DHT22;5508;49.150;11.030;2023-10-31T16:35:15;9.10;99.90
10911;DHT22;5508;49.150;11.030;2023-10-31T16:38:16;9.10;99.90
10911;DHT22;5508;49.150;11.030;2023-10-31T16:41:16;9.10;99.90
10911;DHT22;5508;49.150;11.030;2023-10-31T16:44:17;9.10;99.90
10911;DHT22;5508;49.150;11.030;2023-10-31T16:47:18;9.10;99.90
10911;DHT22;5508;49.150;11.030;2023-10-31T16:50:18;9.10;99.90
10911;DHT22;5508;49.150;11.030;2023-10-31T16:53:19;9.00;99.90
10911;DHT22;5508;49.150;11.030;2023-10-31T16:56:19;8.90;99.90
10911;DHT22;5508;49.150;11.030;2023-10-31T16:59:21;8.80;99.90
10911;DHT22;5508;49.150;11.030;2023-10-31T17:02:22;8.80;99.90
10911;DHT22;5508;49.150;11.030;2023-10-31T17:05:22;8.60;99.90
10911;DHT22;5508;49.150;11.030;2023-10-31T17:08:24;8.40;99.90
10911;DHT22;5508;49.150;11.030;2023-10-31T17:11:24;8.30;99.90
10911;DHT22;5508;49.150;11.030;2023-10-31T17:14:25;8.20;99.90
10911;DHT22;5508;49.150;11.030;2023-10-31T17:17:26;8.20;99.90
10911;DHT22;5508;49.150;11.030;2023-10-31T17:20:29;8.30;99.90
10911;DHT22;5508;49.150;11.030;2023-10-31T17:23:29;8.30;99.90
10911;DHT22;5508;49.150;11.030;2023-10-31T17:26:31;8.50;99.90
10911;DHT22;5508;49.150;11.030;2023-10-31T17:29:31;8.50;99.90
10911;DHT22;5508;49.150;11.030;2023-10-31T17:32:32;8.60;99.90
10911;DHT22;5508;49.150;11.030;2023-10-31T17:35:32;8.60;99.90
10911;DHT22;5508;49.150;11.030;2023-10-31T17:38:33;8.60;99.90
10911;DHT22;5508;49.150;11.030;2023-10-31T17:41:34;8.60;99.90
10911;DHT22;5508;49.150;11.030;2023-10-31T17:44:35;8.50;99.90
10911;DHT22;5508;49.150;11.030;2023-10-31T17:47:35;8.50;99.90
10911;DHT22;5508;49.150;11.030;2023-10-31T17:50:36;8.50;99.90
10911;DHT22;5508;49.150;11.030;2023-10-31T17:53:37;8.50;99.90
10911;DHT22;5508;49.150;11.030;2023-10-31T17:56:39;8.60;99.90
10911;DHT22;5508;49.150;11.030;2023-10-31T17:59:40;8.60;99.90
10911;DHT22;5508;49.150;11.030;2023-10-31T18:02:40;8.70;99.90
10911;DHT22;5508;49.150;11.030;2023-10-31T18:05:41;8.80;99.90
10911;DHT22;5508;49.150;11.030;2023-10-31T18:08:41;8.80;99.90
10911;DHT22;5508;49.150;11.030;2023-10-31T18:11:42;8.80;99.90
10911;DHT22;5508;49.150;11.030;2023-10-31T18:14:43;8.80;99.90
10911;DHT22;5508;49.150;11.030;2023-10-31T18:17:44;8.90;99.90
10911;DHT22;5508;49.150;11.030;2023-10-31T18:20:44;8.90;99.90
10911;DHT22;5508;49.150;11.030;2023-10-31T18:23:45;8.90;99.90
10911;DHT22;5508;49.150;11.030;2023-10-31T18:26:47;8.90;99.90
10911;DHT22;5508;49.150;11.030;2023-10-31T18:29:50;8.90;99.90
10911;DHT22;5508;49.150;11.030;2023-10-31T18:32:52;8.90;99.90
10911;DHT22;5508;49.150;11.030;2023-10-31T18:35:53;8.90;99.90
10911;DHT22;5508;49.150;11.030;2023-10-31T18:38:53;8.90;99.90
10911;DHT22;5508;49.150;11.030;2023-10-31T18:41:54;9.00;99.90
10911;DHT22;5508;49.150;11.030;2023-10-31T18:44:55;8.90;99.90
10911;DHT22;5508;49.150;11.030;2023-10-31T18:47:55;8.90;99.90
10911;DHT22;5508;49.150;11.030;2023-10-31T18:50:56;8.90;99.90
10911;DHT22;5508;49.150;11.030;2023-10-31T18:53:58;8.90;99.90
10911;DHT22;5508;49.150;11.030;2023-10-31T18:56:58;8.90;99.90
10911;DHT22;5508;49.150;11.030;2023-10-31T18:59:59;9.00;99.90
10911;DHT22;5508;49.150;11.030;2023-10-31T19:03:01;8.90;99.90
10911;DHT22;5508;49.150;11.030;2023-10-31T19:06:02;9.00;99.90
10911;DHT22;5508;49.150;11.030;2023-10-31T19:09:03;9.00;99.90
10911;DHT22;5508;49.150;11.030;2023-10-31T19:12:06;8.90;99.90
10911;DHT22;5508;49.150;11.030;2023-10-31T19:15:07;8.90;99.90
10911;DHT22;5508;49.150;11.030;2023-10-31T19:18:08;8.90;99.90
10911;DHT22;5508;49.150;11.030;2023-10-31T19:21:08;8.90;99.90